sensor_id;sensor_type;location;lat;lon;timestamp;temperature;humidity
52181;DHT22;38158;53.338;6.514;2023-07-22T00:01:19;13.10;99.90
52181;DHT22;38158;53.338;6.514;2023-07-22T00:03:44;13.10;99.90
52181;DHT22;38158;53.338;6.514;2023-07-22T00:06:11;13.10;99.90
52181;DHT22;38158;53.338;6.514;2023-07-22T00:08:37;13.10;99.90
52181;DHT22;38158;53.338;6.514;2023-07-22T00:11:05;13.00;99.90
52181;DHT22;38158;53.338;6.514;2023-07-22T00:13:31;13.00;99.90
52181;DHT22;38158;53.338;6.514;2023-07-22T00:15:57;13.00;99.90
52181;DHT22;38158;53.338;6.514;2023-07-22T00:18:25;12.90;99.90
52181;DHT22;38158;53.338;6.514;2023-07-22T00:20:52;12.90;99.90
52181;DHT22;38158;53.338;6.514;2023-07-22T00:23:19;12.90;99.90
52181;DHT22;38158;53.338;6.514;2023-07-22T00:25:48;12.80;99.90
52181;DHT22;38158;53.338;6.514;2023-07-22T00:28:14;12.80;99.90
52181;DHT22;38158;53.338;6.514;2023-07-22T00:30:40;12.80;99.90
52181;DHT22;38158;53.338;6.514;2023-07-22T00:33:07;12.80;99.90
52181;DHT22;38158;53.338;6.514;2023-07-22T00:35:33;12.80;99.90
52181;DHT22;38158;53.338;6.514;2023-07-22T00:38:02;12.70;99.90
52181;DHT22;38158;53.338;6.514;2023-07-22T00:40:29;12.70;99.90
52181;DHT22;38158;53.338;6.514;2023-07-22T00:42:57;12.70;99.90
52181;DHT22;38158;53.338;6.514;2023-07-22T00:45:24;12.60;99.90
52181;DHT22;38158;53.338;6.514;2023-07-22T00:47:50;12.60;99.90
52181;DHT22;38158;53.338;6.514;2023-07-22T00:50:16;12.50;99.90
52181;DHT22;38158;53.338;6.514;2023-07-22T00:52:41;12.50;99.90
52181;DHT22;38158;53.338;6.514;2023-07-22T00:55:07;12.50;99.90
52181;DHT22;38158;53.338;6.514;2023-07-22T00:57:34;12.50;99.90
52181;DHT22;38158;53.338;6.514;2023-07-22T00:59:59;12.50;99.90
52181;DHT22;38158;53.338;6.514;2023-07-22T01:02:25;12.40;99.90
52181;DHT22;38158;53.338;6.514;2023-07-22T01:04:51;12.40;99.90
52181;DHT22;38158;53.338;6.514;2023-07-22T01:07:17;12.40;99.90
52181;DHT22;38158;53.338;6.514;2023-07-22T01:09:43;12.40;99.90
52181;DHT22;38158;53.338;6.514;2023-07-22T01:12:11;12.50;99.90
52181;DHT22;38158;53.338;6.514;2023-07-22T01:14:39;12.50;99.90
52181;DHT22;38158;53.338;6.514;2023-07-22T01:17:06;12.40;99.90
52181;DHT22;38158;53.338;6.514;2023-07-22T01:19:33;12.40;99.90
52181;DHT22;38158;53.338;6.514;2023-07-22T01:22:04;12.50;99.90
52181;DHT22;38158;53.338;6.514;2023-07-22T01:24:31;12.50;99.90
52181;DHT22;38158;53.338;6.514;2023-07-22T01:26:57;12.50;99.90
52181;DHT22;38158;53.338;6.514;2023-07-22T01:29:24;12.50;99.90
52181;DHT22;38158;53.338;6.514;2023-07-22T01:31:52;12.50;99.90
52181;DHT22;38158;53.338;6.514;2023-07-22T01:34:18;12.50;99.90
52181;DHT22;38158;53.338;6.514;2023-07-22T01:36:45;12.40;99.90
52181;DHT22;38158;53.338;6.514;2023-07-22T01:39:13;12.30;99.90
52181;DHT22;38158;53.338;6.514;2023-07-22T01:41:39;12.30;99.90
52181;DHT22;38158;53.338;6.514;2023-07-22T01:44:05;12.20;99.90
52181;DHT22;38158;53.338;6.514;2023-07-22T01:46:31;12.10;99.90
52181;DHT22;38158;53.338;6.514;2023-07-22T01:48:57;12.10;99.90
52181;DHT22;38158;53.338;6.514;2023-07-22T01:51:22;12.10;99.90
52181;DHT22;38158;53.338;6.514;2023-07-22T01:53:48;12.00;99.90
52181;DHT22;38158;53.338;6.514;2023-07-22T01:56:15;12.00;99.90
52181;DHT22;38158;53.338;6.514;2023-07-22T01:58:42;12.00;99.90
52181;DHT22;38158;53.338;6.514;2023-07-22T02:01:08;12.10;99.90
52181;DHT22;38158;53.338;6.514;2023-07-22T02:03:34;12.00;99.90
52181;DHT22;38158;53.338;6.514;2023-07-22T02:06:03;12.00;99.90
52181;DHT22;38158;53.338;6.514;2023-07-22T02:08:29;11.90;99.90
52181;DHT22;38158;53.338;6.514;2023-07-22T02:11:02;11.90;99.90
52181;DHT22;38158;53.338;6.514;2023-07-22T02:13:30;11.90;99.90
52181;DHT22;38158;53.338;6.514;2023-07-22T02:15:55;11.80;99.90
52181;DHT22;38158;53.338;6.514;2023-07-22T02:18:21;11.90;99.90
52181;DHT22;38158;53.338;6.514;2023-07-22T02:20:47;11.80;99.90
52181;DHT22;38158;53.338;6.514;2023-07-22T02:23:14;11.80;99.90
52181;DHT22;38158;53.338;6.514;2023-07-22T02:25:39;11.80;99.90
52181;DHT22;38158;53.338;6.514;2023-07-22T02:28:05;11.80;99.90
52181;DHT22;38158;53.338;6.514;2023-07-22T02:30:34;11.70;99.90
52181;DHT22;38158;53.338;6.514;2023-07-22T02:33:01;11.70;99.90
52181;DHT22;38158;53.338;6.514;2023-07-22T02:35:27;11.70;99.90
52181;DHT22;38158;53.338;6.514;2023-07-22T02:37:53;11.70;99.90
52181;DHT22;38158;53.338;6.514;2023-07-22T02:40:19;11.70;99.90
52181;DHT22;38158;53.338;6.514;2023-07-22T02:42:45;11.60;99.90
52181;DHT22;38158;53.338;6.514;2023-07-22T02:45:10;11.60;99.90
52181;DHT22;38158;53.338;6.514;2023-07-22T02:47:36;11.60;99.90
52181;DHT22;38158;53.338;6.514;2023-07-22T02:50:02;11.60;99.90
52181;DHT22;38158;53.338;6.514;2023-07-22T02:52:30;11.50;99.90
52181;DHT22;38158;53.338;6.514;2023-07-22T02:55:07;11.60;99.90
52181;DHT22;38158;53.338;6.514;2023-07-22T02:57:34;11.60;99.90
52181;DHT22;38158;53.338;6.514;2023-07-22T03:00:00;11.50;99.90
52181;DHT22;38158;53.338;6.514;2023-07-22T03:02:26;11.50;99.90
52181;DHT22;38158;53.338;6.514;2023-07-22T03:04:52;11.50;99.90
52181;DHT22;38158;53.338;6.514;2023-07-22T03:07:17;11.50;99.90
52181;DHT22;38158;53.338;6.514;2023-07-22T03:09:43;11.40;99.90
52181;DHT22;38158;53.338;6.514;2023-07-22T03:12:09;11.40;99.90
52181;DHT22;38158;53.338;6.514;2023-07-22T03:14:35;11.40;99.90
52181;DHT22;38158;53.338;6.514;2023-07-22T03:17:03;11.40;99.90
52181;DHT22;38158;53.338;6.514;2023-07-22T03:19:29;11.40;99.90
52181;DHT22;38158;53.338;6.514;2023-07-22T03:21:55;11.50;99.90
52181;DHT22;38158;53.338;6.514;2023-07-22T03:24:21;11.50;99.90
52181;DHT22;38158;53.338;6.514;2023-07-22T03:26:46;11.50;99.90
52181;DHT22;38158;53.338;6.514;2023-07-22T03:29:12;11.50;99.90
52181;DHT22;38158;53.338;6.514;2023-07-22T03:31:38;11.50;99.90
52181;DHT22;38158;53.338;6.514;2023-07-22T03:34:04;11.50;99.90
52181;DHT22;38158;53.338;6.514;2023-07-22T03:36:30;11.50;99.90
52181;DHT22;38158;53.338;6.514;2023-07-22T03:38:59;11.50;99.90
52181;DHT22;38158;53.338;6.514;2023-07-22T03:41:25;11.50;99.90
52181;DHT22;38158;53.338;6.514;2023-07-22T03:43:51;11.50;99.90
52181;DHT22;38158;53.338;6.514;2023-07-22T03:46:17;11.50;99.90
52181;DHT22;38158;53.338;6.514;2023-07-22T03:48:42;11.40;99.90
52181;DHT22;38158;53.338;6.514;2023-07-22T03:51:08;11.40;99.90
52181;DHT22;38158;53.338;6.514;2023-07-22T03:53:34;11.50;99.90
52181;DHT22;38158;53.338;6.514;2023-07-22T03:55:59;11.50;99.90
52181;DHT22;38158;53.338;6.514;2023-07-22T03:58:25;11.50;99.90
52181;DHT22;38158;53.338;6.514;2023-07-22T04:00:51;11.60;99.90
52181;DHT22;38158;53.338;6.514;2023-07-22T04:03:16;11.50;99.90
52181;DHT22;38158;53.338;6.514;2023-07-22T04:05:42;11.50;99.90
52181;DHT22;38158;53.338;6.514;2023-07-22T04:08:08;11.50;99.90
52181;DHT22;38158;53.338;6.514;2023-07-22T04:10:34;11.50;99.90
52181;DHT22;38158;53.338;6.514;2023-07-22T04:12:59;11.60;99.90
52181;DHT22;38158;53.338;6.514;2023-07-22T04:15:25;11.60;99.90
52181;DHT22;38158;53.338;6.514;2023-07-22T04:17:51;11.60;99.90
52181;DHT22;38158;53.338;6.514;2023-07-22T04:20:16;11.60;99.90
52181;DHT22;38158;53.338;6.514;2023-07-22T04:22:43;11.60;99.90
52181;DHT22;38158;53.338;6.514;2023-07-22T04:25:09;11.60;99.90
52181;DHT22;38158;53.338;6.514;2023-07-22T04:27:35;11.60;99.90
52181;DHT22;38158;53.338;6.514;2023-07-22T04:30:01;11.60;99.90
52181;DHT22;38158;53.338;6.514;2023-07-22T04:32:26;11.60;99.90
52181;DHT22;38158;53.338;6.514;2023-07-22T04:34:52;11.60;99.90
52181;DHT22;38158;53.338;6.514;2023-07-22T04:37:18;11.70;99.90
52181;DHT22;38158;53.338;6.514;2023-07-22T04:39:48;11.70;99.90
52181;DHT22;38158;53.338;6.514;2023-07-22T04:42:14;11.70;99.90
52181;DHT22;38158;53.338;6.514;2023-07-22T04:44:39;11.80;99.90
52181;DHT22;38158;53.338;6.514;2023-07-22T04:47:06;11.80;99.90
52181;DHT22;38158;53.338;6.514;2023-07-22T04:49:32;11.80;99.90
52181;DHT22;38158;53.338;6.514;2023-07-22T04:51:57;11.90;99.90
52181;DHT22;38158;53.338;6.514;2023-07-22T04:54:23;11.90;99.90
52181;DHT22;38158;53.338;6.514;2023-07-22T04:56:49;11.90;99.90
52181;DHT22;38158;53.338;6.514;2023-07-22T04:59:14;11.90;99.90
52181;DHT22;38158;53.338;6.514;2023-07-22T05:01:41;12.00;99.90
52181;DHT22;38158;53.338;6.514;2023-07-22T05:04:07;12.00;99.90
52181;DHT22;38158;53.338;6.514;2023-07-22T05:06:32;12.00;99.90
52181;DHT22;38158;53.338;6.514;2023-07-22T05:08:58;12.10;99.90
52181;DHT22;38158;53.338;6.514;2023-07-22T05:11:24;12.10;99.90
52181;DHT22;38158;53.338;6.514;2023-07-22T05:13:50;12.10;99.90
52181;DHT22;38158;53.338;6.514;2023-07-22T05:16:16;12.10;99.90
52181;DHT22;38158;53.338;6.514;2023-07-22T05:18:42;12.20;99.90
52181;DHT22;38158;53.338;6.514;2023-07-22T05:21:07;12.20;99.90
52181;DHT22;38158;53.338;6.514;2023-07-22T05:23:33;12.20;99.90
52181;DHT22;38158;53.338;6.514;2023-07-22T05:25:59;12.30;99.90
52181;DHT22;38158;53.338;6.514;2023-07-22T05:28:25;12.30;99.90
52181;DHT22;38158;53.338;6.514;2023-07-22T05:30:51;12.30;99.90
52181;DHT22;38158;53.338;6.514;2023-07-22T05:33:16;12.40;99.90
52181;DHT22;38158;53.338;6.514;2023-07-22T05:35:42;12.40;99.90
52181;DHT22;38158;53.338;6.514;2023-07-22T05:38:08;12.50;99.90
52181;DHT22;38158;53.338;6.514;2023-07-22T05:40:33;12.60;99.90
52181;DHT22;38158;53.338;6.514;2023-07-22T05:42:59;12.60;99.90
52181;DHT22;38158;53.338;6.514;2023-07-22T05:45:25;12.70;99.90
52181;DHT22;38158;53.338;6.514;2023-07-22T05:47:50;12.80;99.90
52181;DHT22;38158;53.338;6.514;2023-07-22T05:50:16;12.90;99.90
52181;DHT22;38158;53.338;6.514;2023-07-22T05:52:42;12.90;99.90
52181;DHT22;38158;53.338;6.514;2023-07-22T05:55:08;13.00;99.90
52181;DHT22;38158;53.338;6.514;2023-07-22T05:57:34;13.10;99.90
52181;DHT22;38158;53.338;6.514;2023-07-22T06:00:00;13.20;99.90
52181;DHT22;38158;53.338;6.514;2023-07-22T06:02:26;13.30;99.90
52181;DHT22;38158;53.338;6.514;2023-07-22T06:04:51;13.30;99.90
52181;DHT22;38158;53.338;6.514;2023-07-22T06:07:17;13.50;99.90
52181;DHT22;38158;53.338;6.514;2023-07-22T06:09:43;13.60;99.90
52181;DHT22;38158;53.338;6.514;2023-07-22T06:12:09;13.70;99.90
52181;DHT22;38158;53.338;6.514;2023-07-22T06:14:35;13.80;99.90
52181;DHT22;38158;53.338;6.514;2023-07-22T06:17:01;13.90;99.90
52181;DHT22;38158;53.338;6.514;2023-07-22T06:19:26;13.90;99.90
52181;DHT22;38158;53.338;6.514;2023-07-22T06:21:52;14.00;99.90
52181;DHT22;38158;53.338;6.514;2023-07-22T06:24:18;14.00;99.90
52181;DHT22;38158;53.338;6.514;2023-07-22T06:26:43;14.10;99.90
52181;DHT22;38158;53.338;6.514;2023-07-22T06:29:09;14.20;99.90
52181;DHT22;38158;53.338;6.514;2023-07-22T06:31:35;14.20;99.90
52181;DHT22;38158;53.338;6.514;2023-07-22T06:34:00;14.20;99.90
52181;DHT22;38158;53.338;6.514;2023-07-22T06:36:26;14.30;99.90
52181;DHT22;38158;53.338;6.514;2023-07-22T06:38:52;14.30;99.90
52181;DHT22;38158;53.338;6.514;2023-07-22T06:41:18;14.40;99.90
52181;DHT22;38158;53.338;6.514;2023-07-22T06:43:44;14.50;99.90
52181;DHT22;38158;53.338;6.514;2023-07-22T06:46:10;14.70;99.90
52181;DHT22;38158;53.338;6.514;2023-07-22T06:48:36;14.80;99.90
52181;DHT22;38158;53.338;6.514;2023-07-22T06:51:01;14.90;99.90
52181;DHT22;38158;53.338;6.514;2023-07-22T06:53:27;14.90;99.90
52181;DHT22;38158;53.338;6.514;2023-07-22T06:55:53;15.00;99.90
52181;DHT22;38158;53.338;6.514;2023-07-22T06:58:22;15.00;99.90
52181;DHT22;38158;53.338;6.514;2023-07-22T07:00:52;15.10;99.90
52181;DHT22;38158;53.338;6.514;2023-07-22T07:03:17;15.10;99.90
52181;DHT22;38158;53.338;6.514;2023-07-22T07:05:43;15.20;99.90
52181;DHT22;38158;53.338;6.514;2023-07-22T07:08:09;15.10;99.90
52181;DHT22;38158;53.338;6.514;2023-07-22T07:10:38;15.10;99.90
52181;DHT22;38158;53.338;6.514;2023-07-22T07:13:07;15.10;99.90
52181;DHT22;38158;53.338;6.514;2023-07-22T07:15:32;15.10;99.90
52181;DHT22;38158;53.338;6.514;2023-07-22T07:17:58;15.20;99.90
52181;DHT22;38158;53.338;6.514;2023-07-22T07:20:24;15.20;99.90
52181;DHT22;38158;53.338;6.514;2023-07-22T07:22:49;15.20;99.90
52181;DHT22;38158;53.338;6.514;2023-07-22T07:25:16;15.20;99.90
52181;DHT22;38158;53.338;6.514;2023-07-22T07:27:41;15.30;99.90
52181;DHT22;38158;53.338;6.514;2023-07-22T07:30:08;15.30;99.90
52181;DHT22;38158;53.338;6.514;2023-07-22T07:32:34;15.40;99.90
52181;DHT22;38158;53.338;6.514;2023-07-22T07:35:00;15.40;99.90
52181;DHT22;38158;53.338;6.514;2023-07-22T07:37:26;15.50;99.90
52181;DHT22;38158;53.338;6.514;2023-07-22T07:39:51;15.50;99.90
52181;DHT22;38158;53.338;6.514;2023-07-22T07:42:17;15.60;99.90
52181;DHT22;38158;53.338;6.514;2023-07-22T07:44:43;15.70;99.90
52181;DHT22;38158;53.338;6.514;2023-07-22T07:47:09;15.80;99.90
52181;DHT22;38158;53.338;6.514;2023-07-22T07:49:35;15.90;99.90
52181;DHT22;38158;53.338;6.514;2023-07-22T07:52:01;15.90;99.90
52181;DHT22;38158;53.338;6.514;2023-07-22T07:54:27;16.00;99.90
52181;DHT22;38158;53.338;6.514;2023-07-22T07:56:53;16.00;99.90
52181;DHT22;38158;53.338;6.514;2023-07-22T07:59:18;16.10;99.90
52181;DHT22;38158;53.338;6.514;2023-07-22T08:01:44;15.90;99.90
52181;DHT22;38158;53.338;6.514;2023-07-22T08:04:10;16.20;99.90
52181;DHT22;38158;53.338;6.514;2023-07-22T08:06:36;16.30;99.90
52181;DHT22;38158;53.338;6.514;2023-07-22T08:09:03;16.30;99.90
52181;DHT22;38158;53.338;6.514;2023-07-22T08:11:31;16.30;99.90
52181;DHT22;38158;53.338;6.514;2023-07-22T08:13:56;16.40;99.90
52181;DHT22;38158;53.338;6.514;2023-07-22T08:16:22;16.50;99.90
52181;DHT22;38158;53.338;6.514;2023-07-22T08:18:50;16.70;99.90
52181;DHT22;38158;53.338;6.514;2023-07-22T08:21:15;16.90;99.90
52181;DHT22;38158;53.338;6.514;2023-07-22T08:23:41;17.10;99.90
52181;DHT22;38158;53.338;6.514;2023-07-22T08:26:11;17.20;99.90
52181;DHT22;38158;53.338;6.514;2023-07-22T08:28:36;17.10;99.90
52181;DHT22;38158;53.338;6.514;2023-07-22T08:31:02;17.10;99.90
52181;DHT22;38158;53.338;6.514;2023-07-22T08:33:28;17.00;99.90
52181;DHT22;38158;53.338;6.514;2023-07-22T08:35:54;16.80;99.90
52181;DHT22;38158;53.338;6.514;2023-07-22T08:38:20;16.70;99.90
52181;DHT22;38158;53.338;6.514;2023-07-22T08:40:49;16.60;99.90
52181;DHT22;38158;53.338;6.514;2023-07-22T08:43:20;16.50;99.90
52181;DHT22;38158;53.338;6.514;2023-07-22T08:45:48;16.40;99.90
52181;DHT22;38158;53.338;6.514;2023-07-22T08:48:16;16.30;99.90
52181;DHT22;38158;53.338;6.514;2023-07-22T08:50:53;16.20;99.90
52181;DHT22;38158;53.338;6.514;2023-07-22T08:53:20;16.00;99.90
52181;DHT22;38158;53.338;6.514;2023-07-22T08:55:46;15.90;99.90
52181;DHT22;38158;53.338;6.514;2023-07-22T08:58:13;15.80;99.90
52181;DHT22;38158;53.338;6.514;2023-07-22T09:00:40;15.80;99.90
52181;DHT22;38158;53.338;6.514;2023-07-22T09:03:06;15.80;99.90
52181;DHT22;38158;53.338;6.514;2023-07-22T09:05:33;15.90;99.90
52181;DHT22;38158;53.338;6.514;2023-07-22T09:07:59;16.10;99.90
52181;DHT22;38158;53.338;6.514;2023-07-22T09:10:27;16.30;99.90
52181;DHT22;38158;53.338;6.514;2023-07-22T09:12:53;16.40;99.90
52181;DHT22;38158;53.338;6.514;2023-07-22T09:15:20;16.50;99.90
52181;DHT22;38158;53.338;6.514;2023-07-22T09:17:47;16.60;99.90
52181;DHT22;38158;53.338;6.514;2023-07-22T09:20:14;16.70;99.90
52181;DHT22;38158;53.338;6.514;2023-07-22T09:22:44;16.70;99.90
52181;DHT22;38158;53.338;6.514;2023-07-22T09:25:24;16.70;99.90
52181;DHT22;38158;53.338;6.514;2023-07-22T09:27:59;16.60;99.90
52181;DHT22;38158;53.338;6.514;2023-07-22T09:30:28;16.60;99.90
52181;DHT22;38158;53.338;6.514;2023-07-22T09:32:57;16.50;99.90
52181;DHT22;38158;53.338;6.514;2023-07-22T09:35:31;16.50;99.90
52181;DHT22;38158;53.338;6.514;2023-07-22T09:37:58;16.50;99.90
52181;DHT22;38158;53.338;6.514;2023-07-22T09:40:26;16.40;99.90
52181;DHT22;38158;53.338;6.514;2023-07-22T09:42:53;16.30;99.90
52181;DHT22;38158;53.338;6.514;2023-07-22T09:45:23;16.30;99.90
52181;DHT22;38158;53.338;6.514;2023-07-22T09:47:50;16.10;99.90
52181;DHT22;38158;53.338;6.514;2023-07-22T09:50:24;16.00;99.90
52181;DHT22;38158;53.338;6.514;2023-07-22T09:52:52;15.90;99.90
52181;DHT22;38158;53.338;6.514;2023-07-22T09:55:20;15.90;99.90
52181;DHT22;38158;53.338;6.514;2023-07-22T09:57:49;15.70;99.90
52181;DHT22;38158;53.338;6.514;2023-07-22T10:00:16;15.50;99.90
52181;DHT22;38158;53.338;6.514;2023-07-22T10:02:45;15.30;99.90
52181;DHT22;38158;53.338;6.514;2023-07-22T10:05:16;15.20;99.90
52181;DHT22;38158;53.338;6.514;2023-07-22T10:07:50;15.20;99.90
52181;DHT22;38158;53.338;6.514;2023-07-22T10:10:18;15.20;99.90
52181;DHT22;38158;53.338;6.514;2023-07-22T10:12:44;15.20;99.90
52181;DHT22;38158;53.338;6.514;2023-07-22T10:15:12;15.10;99.90
52181;DHT22;38158;53.338;6.514;2023-07-22T10:17:39;15.10;99.90
52181;DHT22;38158;53.338;6.514;2023-07-22T10:20:06;15.20;99.90
52181;DHT22;38158;53.338;6.514;2023-07-22T10:22:36;15.20;99.90
52181;DHT22;38158;53.338;6.514;2023-07-22T10:25:06;15.20;99.90
52181;DHT22;38158;53.338;6.514;2023-07-22T10:27:37;15.30;99.90
52181;DHT22;38158;53.338;6.514;2023-07-22T10:30:05;15.30;99.90
52181;DHT22;38158;53.338;6.514;2023-07-22T10:32:52;15.30;99.90
52181;DHT22;38158;53.338;6.514;2023-07-22T10:37:56;15.50;99.90
52181;DHT22;38158;53.338;6.514;2023-07-22T10:45:30;15.50;99.90
52181;DHT22;38158;53.338;6.514;2023-07-22T10:48:05;15.50;99.90
52181;DHT22;38158;53.338;6.514;2023-07-22T10:50:43;15.50;99.90
52181;DHT22;38158;53.338;6.514;2023-07-22T10:53:10;15.50;99.90
52181;DHT22;38158;53.338;6.514;2023-07-22T10:56:06;15.60;99.90
52181;DHT22;38158;53.338;6.514;2023-07-22T11:01:34;15.60;99.90
52181;DHT22;38158;53.338;6.514;2023-07-22T11:06:57;15.70;99.90
52181;DHT22;38158;53.338;6.514;2023-07-22T11:11:59;15.80;99.90
52181;DHT22;38158;53.338;6.514;2023-07-22T11:14:27;15.80;99.90
52181;DHT22;38158;53.338;6.514;2023-07-22T11:16:53;15.80;99.90
52181;DHT22;38158;53.338;6.514;2023-07-22T11:19:21;15.80;99.90
52181;DHT22;38158;53.338;6.514;2023-07-22T11:21:48;15.70;99.90
52181;DHT22;38158;53.338;6.514;2023-07-22T11:24:15;15.70;99.90
52181;DHT22;38158;53.338;6.514;2023-07-22T11:26:41;15.70;99.90
52181;DHT22;38158;53.338;6.514;2023-07-22T11:29:08;15.60;99.90
52181;DHT22;38158;53.338;6.514;2023-07-22T11:31:40;15.60;99.90
52181;DHT22;38158;53.338;6.514;2023-07-22T11:34:09;15.50;99.90
52181;DHT22;38158;53.338;6.514;2023-07-22T11:36:35;15.40;99.90
52181;DHT22;38158;53.338;6.514;2023-07-22T11:39:07;15.40;99.90
52181;DHT22;38158;53.338;6.514;2023-07-22T11:41:34;15.50;99.90
52181;DHT22;38158;53.338;6.514;2023-07-22T11:44:01;15.50;99.90
52181;DHT22;38158;53.338;6.514;2023-07-22T11:46:27;15.50;99.90
52181;DHT22;38158;53.338;6.514;2023-07-22T11:48:54;15.50;99.90
52181;DHT22;38158;53.338;6.514;2023-07-22T11:51:22;15.50;99.90
52181;DHT22;38158;53.338;6.514;2023-07-22T11:53:50;15.60;99.90
52181;DHT22;38158;53.338;6.514;2023-07-22T11:56:26;15.70;99.90
52181;DHT22;38158;53.338;6.514;2023-07-22T11:58:56;15.70;99.90
52181;DHT22;38158;53.338;6.514;2023-07-22T12:01:22;15.70;99.90
52181;DHT22;38158;53.338;6.514;2023-07-22T12:03:48;15.70;99.90
52181;DHT22;38158;53.338;6.514;2023-07-22T12:06:15;15.70;99.90
52181;DHT22;38158;53.338;6.514;2023-07-22T12:08:49;15.80;99.90
52181;DHT22;38158;53.338;6.514;2023-07-22T12:11:23;15.80;99.90
52181;DHT22;38158;53.338;6.514;2023-07-22T12:14:11;15.90;99.90
52181;DHT22;38158;53.338;6.514;2023-07-22T12:16:40;16.00;99.90
52181;DHT22;38158;53.338;6.514;2023-07-22T12:19:07;16.00;99.90
52181;DHT22;38158;53.338;6.514;2023-07-22T12:21:33;16.10;99.90
52181;DHT22;38158;53.338;6.514;2023-07-22T12:23:59;16.10;99.90
52181;DHT22;38158;53.338;6.514;2023-07-22T12:26:26;16.20;99.90
52181;DHT22;38158;53.338;6.514;2023-07-22T12:28:51;16.10;99.90
52181;DHT22;38158;53.338;6.514;2023-07-22T12:31:17;16.00;99.90
52181;DHT22;38158;53.338;6.514;2023-07-22T12:33:43;16.00;99.90
52181;DHT22;38158;53.338;6.514;2023-07-22T12:36:09;16.00;99.90
52181;DHT22;38158;53.338;6.514;2023-07-22T12:38:35;15.90;99.90
52181;DHT22;38158;53.338;6.514;2023-07-22T12:41:01;15.80;99.90
52181;DHT22;38158;53.338;6.514;2023-07-22T12:43:27;15.70;99.90
52181;DHT22;38158;53.338;6.514;2023-07-22T12:45:53;15.70;99.90
52181;DHT22;38158;53.338;6.514;2023-07-22T12:48:19;15.70;99.90
52181;DHT22;38158;53.338;6.514;2023-07-22T12:50:45;15.70;99.90
52181;DHT22;38158;53.338;6.514;2023-07-22T12:53:13;15.70;99.90
52181;DHT22;38158;53.338;6.514;2023-07-22T12:55:39;15.70;99.90
52181;DHT22;38158;53.338;6.514;2023-07-22T12:58:05;15.70;99.90
52181;DHT22;38158;53.338;6.514;2023-07-22T13:00:30;15.70;99.90
52181;DHT22;38158;53.338;6.514;2023-07-22T13:02:56;15.70;99.90
52181;DHT22;38158;53.338;6.514;2023-07-22T13:05:22;15.80;99.90
52181;DHT22;38158;53.338;6.514;2023-07-22T13:07:48;15.90;99.90
52181;DHT22;38158;53.338;6.514;2023-07-22T13:10:15;16.10;99.90
52181;DHT22;38158;53.338;6.514;2023-07-22T13:12:43;16.30;99.90
52181;DHT22;38158;53.338;6.514;2023-07-22T13:15:09;16.40;99.90
52181;DHT22;38158;53.338;6.514;2023-07-22T13:17:35;16.60;99.90
52181;DHT22;38158;53.338;6.514;2023-07-22T13:20:02;16.80;99.90
52181;DHT22;38158;53.338;6.514;2023-07-22T13:22:33;16.90;99.90
52181;DHT22;38158;53.338;6.514;2023-07-22T13:24:58;16.90;99.90
52181;DHT22;38158;53.338;6.514;2023-07-22T13:27:24;16.90;99.90
52181;DHT22;38158;53.338;6.514;2023-07-22T13:29:50;16.90;99.90
52181;DHT22;38158;53.338;6.514;2023-07-22T13:32:15;17.00;99.90
52181;DHT22;38158;53.338;6.514;2023-07-22T13:34:41;16.90;99.90
52181;DHT22;38158;53.338;6.514;2023-07-22T13:37:07;16.90;99.90
52181;DHT22;38158;53.338;6.514;2023-07-22T13:39:32;16.90;99.90
52181;DHT22;38158;53.338;6.514;2023-07-22T13:41:59;16.90;99.90
52181;DHT22;38158;53.338;6.514;2023-07-22T13:44:25;16.90;99.90
52181;DHT22;38158;53.338;6.514;2023-07-22T13:46:50;16.80;99.90
52181;DHT22;38158;53.338;6.514;2023-07-22T13:49:16;16.70;99.90
52181;DHT22;38158;53.338;6.514;2023-07-22T13:51:43;16.70;99.90
52181;DHT22;38158;53.338;6.514;2023-07-22T13:54:09;16.60;99.90
52181;DHT22;38158;53.338;6.514;2023-07-22T13:56:34;16.50;99.90
52181;DHT22;38158;53.338;6.514;2023-07-22T13:59:01;16.40;99.90
52181;DHT22;38158;53.338;6.514;2023-07-22T14:01:29;16.40;99.90
52181;DHT22;38158;53.338;6.514;2023-07-22T14:03:54;16.30;99.90
52181;DHT22;38158;53.338;6.514;2023-07-22T14:06:20;16.30;99.90
52181;DHT22;38158;53.338;6.514;2023-07-22T14:08:46;16.10;99.90
52181;DHT22;38158;53.338;6.514;2023-07-22T14:11:12;15.90;99.90
52181;DHT22;38158;53.338;6.514;2023-07-22T14:13:38;15.80;99.90
52181;DHT22;38158;53.338;6.514;2023-07-22T14:16:03;15.70;99.90
52181;DHT22;38158;53.338;6.514;2023-07-22T14:18:29;15.60;99.90
52181;DHT22;38158;53.338;6.514;2023-07-22T14:20:55;15.70;99.90
52181;DHT22;38158;53.338;6.514;2023-07-22T14:23:21;15.70;99.90
52181;DHT22;38158;53.338;6.514;2023-07-22T14:25:47;15.70;99.90
52181;DHT22;38158;53.338;6.514;2023-07-22T14:28:12;15.80;99.90
52181;DHT22;38158;53.338;6.514;2023-07-22T14:30:38;15.80;99.90
52181;DHT22;38158;53.338;6.514;2023-07-22T14:33:04;15.80;99.90
52181;DHT22;38158;53.338;6.514;2023-07-22T14:35:30;15.80;99.90
52181;DHT22;38158;53.338;6.514;2023-07-22T14:37:58;15.80;99.90
52181;DHT22;38158;53.338;6.514;2023-07-22T14:40:25;15.90;99.90
52181;DHT22;38158;53.338;6.514;2023-07-22T14:42:51;15.80;99.90
52181;DHT22;38158;53.338;6.514;2023-07-22T14:45:17;15.80;99.90
52181;DHT22;38158;53.338;6.514;2023-07-22T14:47:42;15.90;99.90
52181;DHT22;38158;53.338;6.514;2023-07-22T14:50:09;15.90;99.90
52181;DHT22;38158;53.338;6.514;2023-07-22T14:52:35;15.90;99.90
52181;DHT22;38158;53.338;6.514;2023-07-22T14:55:00;15.80;99.90
52181;DHT22;38158;53.338;6.514;2023-07-22T14:57:27;15.90;99.90
52181;DHT22;38158;53.338;6.514;2023-07-22T14:59:56;15.90;99.90
52181;DHT22;38158;53.338;6.514;2023-07-22T15:02:22;15.90;99.90
52181;DHT22;38158;53.338;6.514;2023-07-22T15:04:48;15.90;99.90
52181;DHT22;38158;53.338;6.514;2023-07-22T15:07:14;15.90;99.90
52181;DHT22;38158;53.338;6.514;2023-07-22T15:09:40;16.00;99.90
52181;DHT22;38158;53.338;6.514;2023-07-22T15:12:05;16.00;99.90
52181;DHT22;38158;53.338;6.514;2023-07-22T15:14:33;16.10;99.90
52181;DHT22;38158;53.338;6.514;2023-07-22T15:16:59;16.20;99.90
52181;DHT22;38158;53.338;6.514;2023-07-22T15:19:25;16.20;99.90
52181;DHT22;38158;53.338;6.514;2023-07-22T15:21:51;16.20;99.90
52181;DHT22;38158;53.338;6.514;2023-07-22T15:24:18;16.30;99.90
52181;DHT22;38158;53.338;6.514;2023-07-22T15:26:44;16.30;99.90
52181;DHT22;38158;53.338;6.514;2023-07-22T15:29:10;16.30;99.90
52181;DHT22;38158;53.338;6.514;2023-07-22T15:31:35;16.40;99.90
52181;DHT22;38158;53.338;6.514;2023-07-22T15:34:01;16.40;99.90
52181;DHT22;38158;53.338;6.514;2023-07-22T15:36:27;16.50;99.90
52181;DHT22;38158;53.338;6.514;2023-07-22T15:38:52;16.50;99.90
52181;DHT22;38158;53.338;6.514;2023-07-22T15:41:18;16.60;99.90
52181;DHT22;38158;53.338;6.514;2023-07-22T15:43:44;16.60;99.90